createdAt,value
2023-04-19T00:00:30.342Z,982.83
2023-04-19T00:01:02.052Z,982.83
2023-04-19T00:01:33.608Z,982.63
2023-04-19T00:02:05.981Z,982.63
2023-04-19T00:02:37.992Z,982.53
2023-04-19T00:03:09.959Z,982.53
2023-04-19T00:03:41.916Z,982.73
2023-04-19T00:04:13.976Z,982.73
2023-04-19T00:04:45.542Z,982.53
2023-04-19T00:05:02.561Z,982.53
2023-04-19T00:05:33.412Z,982.63
2023-04-19T00:05:50.007Z,982.63
2023-04-19T00:06:21.598Z,982.63
2023-04-19T00:06:53.503Z,982.42
2023-04-19T00:07:25.372Z,982.53
2023-04-19T00:07:57.420Z,982.53
2023-04-19T00:08:29.630Z,982.53
2023-04-19T00:09:01.657Z,982.53
2023-04-19T00:09:17.370Z,982.53
2023-04-19T00:09:49.555Z,982.63
2023-04-19T00:10:33.518Z,982.63
2023-04-19T00:11:05.659Z,982.63
2023-04-19T00:11:37.192Z,982.53
2023-04-19T00:12:09.576Z,982.53
2023-04-19T00:12:41.289Z,982.42
2023-04-19T00:13:13.017Z,982.42
2023-04-19T00:13:45.009Z,982.53
2023-04-19T00:14:01.535Z,982.53
2023-04-19T00:14:45.062Z,982.63
2023-04-19T00:15:18.826Z,982.63
2023-04-19T00:15:49.012Z,982.53
2023-04-19T00:16:21.020Z,982.53
2023-04-19T00:16:53.416Z,982.32
2023-04-19T00:17:25.046Z,982.73
2023-04-19T00:17:57.013Z,982.73
2023-04-19T00:18:28.937Z,982.63
2023-04-19T00:19:00.965Z,982.63
2023-04-19T00:19:33.072Z,982.32
2023-04-19T00:20:05.290Z,982.32
2023-04-19T00:20:36.778Z,982.42
2023-04-19T00:21:09.146Z,982.42
2023-04-19T00:21:40.910Z,982.63
2023-04-19T00:22:12.776Z,982.63
2023-04-19T00:22:44.665Z,982.42
2023-04-19T00:23:00.894Z,982.42
2023-04-19T00:23:32.713Z,982.32
2023-04-19T00:23:49.006Z,982.32
2023-04-19T00:24:20.889Z,982.32
2023-04-19T00:24:52.767Z,982.53
2023-04-19T00:25:24.997Z,982.53
2023-04-19T00:25:56.722Z,982.53
2023-04-19T00:26:28.770Z,982.53
2023-04-19T00:27:00.530Z,982.53
2023-04-19T00:27:16.686Z,982.53
2023-04-19T00:27:48.658Z,982.42
2023-04-19T00:28:32.784Z,982.22
2023-04-19T00:29:04.598Z,982.22
2023-04-19T00:29:36.461Z,982.53
2023-04-19T00:30:11.808Z,982.53
2023-04-19T00:30:40.597Z,982.42
2023-04-19T00:31:12.540Z,982.42
2023-04-19T00:31:44.395Z,982.42
2023-04-19T00:32:00.538Z,982.42
2023-04-19T00:32:44.610Z,982.63
2023-04-19T00:33:16.342Z,982.63
2023-04-19T00:33:48.146Z,982.63
2023-04-19T00:34:20.304Z,982.63
2023-04-19T00:34:52.276Z,982.42
2023-04-19T00:35:24.756Z,982.63
2023-04-19T00:35:56.246Z,982.63
2023-04-19T00:36:28.058Z,982.42
2023-04-19T00:37:00.378Z,982.42
2023-04-19T00:37:32.269Z,982.42
2023-04-19T00:38:04.449Z,982.42
2023-04-19T00:38:36.213Z,982.42
2023-04-19T00:39:08.589Z,982.42
2023-04-19T00:39:40.061Z,982.42
2023-04-19T00:40:12.398Z,982.42
2023-04-19T00:40:43.938Z,982.42
2023-04-19T00:41:00.420Z,982.42
2023-04-19T00:41:31.949Z,982.42
2023-04-19T00:41:48.082Z,982.42
2023-04-19T00:42:19.929Z,982.42
2023-04-19T00:42:51.825Z,982.32
2023-04-19T00:43:08.475Z,982.32
2023-04-19T00:43:40.026Z,982.53
2023-04-19T00:44:24.031Z,982.42
2023-04-19T00:44:55.644Z,982.42
2023-04-19T00:45:28.113Z,982.42
2023-04-19T00:46:00.211Z,982.42
2023-04-19T00:46:31.886Z,982.32
2023-04-19T00:47:04.195Z,982.32
2023-04-19T00:47:35.805Z,982.42
2023-04-19T00:48:08.044Z,982.42
2023-04-19T00:48:40.145Z,982.42
2023-04-19T00:49:11.689Z,982.42
2023-04-19T00:49:43.608Z,982.42
2023-04-19T00:50:15.799Z,982.42
2023-04-19T00:50:47.768Z,982.22
2023-04-19T00:51:19.660Z,982.22
2023-04-19T00:51:51.503Z,982.32
2023-04-19T00:52:23.678Z,982.32
2023-04-19T00:52:55.485Z,982.42
2023-04-19T00:53:27.413Z,982.32
2023-04-19T00:53:59.655Z,982.32
2023-04-19T00:54:15.645Z,982.32
2023-04-19T00:54:59.627Z,982.32
2023-04-19T00:55:31.794Z,982.42
2023-04-19T00:56:03.999Z,982.42
2023-04-19T00:56:35.411Z,982.53
2023-04-19T00:57:07.248Z,982.53
2023-04-19T00:57:39.642Z,982.22
2023-04-19T00:58:11.289Z,982.22
2023-04-19T00:58:43.147Z,982.42
2023-04-19T00:59:15.222Z,982.42
2023-04-19T00:59:47.236Z,982.42
2023-04-19T01:00:20.474Z,982.42
2023-04-19T01:00:51.134Z,982.32
2023-04-19T01:01:23.300Z,982.32
2023-04-19T01:01:55.250Z,982.32
2023-04-19T01:02:27.302Z,982.42
2023-04-19T01:02:59.341Z,982.42
2023-04-19T01:03:31.252Z,982.32
2023-04-19T01:04:03.861Z,982.32
2023-04-19T01:04:35.205Z,982.32
2023-04-19T01:05:07.174Z,982.32
2023-04-19T01:05:39.205Z,982.42
2023-04-19T01:06:10.959Z,982.42
2023-04-19T01:06:42.981Z,982.53
2023-04-19T01:07:14.808Z,982.53
2023-04-19T01:07:46.781Z,982.32
2023-04-19T01:08:19.011Z,982.32
2023-04-19T01:08:51.006Z,982.22
2023-04-19T01:09:22.784Z,982.22
2023-04-19T01:09:54.802Z,982.42
2023-04-19T01:10:27.044Z,982.32
2023-04-19T01:10:58.841Z,982.32
2023-04-19T01:11:30.656Z,982.42
2023-04-19T01:11:46.677Z,982.42
2023-04-19T01:12:18.781Z,982.42
2023-04-19T01:13:03.570Z,982.32
2023-04-19T01:13:34.512Z,982.32
2023-04-19T01:14:06.568Z,982.32
2023-04-19T01:14:39.017Z,982.42
2023-04-19T01:15:11.953Z,982.42
2023-04-19T01:15:42.759Z,982.32
2023-04-19T01:16:14.494Z,982.32
2023-04-19T01:16:30.696Z,982.22
2023-04-19T01:17:14.478Z,982.22
2023-04-19T01:17:46.548Z,982.32
2023-04-19T01:18:18.465Z,982.32
2023-04-19T01:18:50.639Z,982.22
2023-04-19T01:19:22.479Z,982.22
2023-04-19T01:19:54.458Z,982.12
2023-04-19T01:20:26.749Z,982.53
2023-04-19T01:20:58.337Z,982.53
2023-04-19T01:21:14.443Z,982.53
2023-04-19T01:21:46.474Z,982.22
2023-04-19T01:22:30.482Z,982.22
2023-04-19T01:23:02.567Z,982.22
2023-04-19T01:23:34.202Z,982.32
2023-04-19T01:24:06.254Z,982.32
2023-04-19T01:24:38.643Z,982.32
2023-04-19T01:25:10.380Z,982.32
2023-04-19T01:25:42.064Z,982.12
2023-04-19T01:26:14.176Z,982.12
2023-04-19T01:26:46.105Z,982.12
2023-04-19T01:27:18.403Z,982.12
2023-04-19T01:27:50.066Z,982.32
2023-04-19T01:28:22.614Z,982.32
2023-04-19T01:28:54.194Z,982.32
2023-04-19T01:29:26.015Z,982.12
2023-04-19T01:29:58.019Z,982.12
2023-04-19T01:30:15.189Z,982.12
2023-04-19T01:30:57.963Z,982.12
2023-04-19T01:31:30.216Z,982.02
2023-04-19T01:32:02.614Z,982.02
2023-04-19T01:32:33.874Z,982.02
2023-04-19T01:33:05.961Z,982.02
2023-04-19T01:33:38.041Z,982.22
2023-04-19T01:34:10.050Z,982.22
2023-04-19T01:34:41.722Z,982.22
2023-04-19T01:34:57.912Z,982.22
2023-04-19T01:35:30.102Z,982.02
2023-04-19T01:35:45.821Z,982.02
2023-04-19T01:36:17.968Z,982.02
2023-04-19T01:36:49.730Z,982.12
2023-04-19T01:37:21.667Z,982.12
2023-04-19T01:37:53.792Z,982.02
2023-04-19T01:38:25.563Z,981.92
2023-04-19T01:38:57.564Z,981.92
2023-04-19T01:39:13.584Z,981.92
2023-04-19T01:39:45.419Z,982.02
2023-04-19T01:40:29.981Z,981.92
2023-04-19T01:41:01.557Z,981.92
2023-04-19T01:41:17.677Z,981.92
2023-04-19T01:41:49.609Z,981.92
2023-04-19T01:42:33.516Z,981.92
2023-04-19T01:43:05.478Z,981.92
2023-04-19T01:43:37.374Z,982.02
2023-04-19T01:44:09.743Z,982.02
2023-04-19T01:44:41.395Z,981.92
2023-04-19T01:45:14.685Z,981.92
2023-04-19T01:45:45.233Z,982.12
2023-04-19T01:46:17.293Z,982.12
2023-04-19T01:46:49.498Z,982.02
2023-04-19T01:47:21.479Z,982.02
2023-04-19T01:47:53.324Z,981.81
2023-04-19T01:48:25.200Z,981.92
2023-04-19T01:48:57.269Z,981.92
2023-04-19T01:49:29.343Z,982.12
2023-04-19T01:50:01.995Z,982.12
2023-04-19T01:50:33.276Z,982.02
2023-04-19T01:51:05.203Z,982.02
2023-04-19T01:51:37.253Z,982.02
2023-04-19T01:52:09.477Z,982.02
2023-04-19T01:52:40.968Z,982.12
2023-04-19T01:53:13.125Z,982.12
2023-04-19T01:53:45.105Z,982.02
2023-04-19T01:54:17.030Z,982.02
2023-04-19T01:54:49.180Z,981.92
2023-04-19T01:55:21.263Z,981.92
2023-04-19T01:55:52.934Z,982.02
2023-04-19T01:56:24.824Z,981.92
2023-04-19T01:56:56.864Z,981.92
2023-04-19T01:57:12.932Z,981.92
2023-04-19T01:57:44.741Z,982.02
2023-04-19T01:58:29.083Z,982.02
2023-04-19T01:59:00.698Z,982.02
2023-04-19T01:59:32.772Z,981.81
2023-04-19T02:00:06.671Z,981.81
2023-04-19T02:00:36.863Z,982.02
2023-04-19T02:01:09.023Z,982.02
2023-04-19T02:01:40.607Z,981.81
2023-04-19T02:02:12.717Z,981.81
2023-04-19T02:02:44.762Z,981.71
2023-04-19T02:03:16.778Z,981.71
2023-04-19T02:03:48.997Z,981.71
2023-04-19T02:04:20.703Z,981.71
2023-04-19T02:04:52.485Z,981.92
2023-04-19T02:05:24.832Z,981.81
2023-04-19T02:05:56.454Z,981.81
2023-04-19T02:06:28.672Z,981.81
2023-04-19T02:07:00.334Z,981.81
2023-04-19T02:07:32.278Z,981.92
2023-04-19T02:08:04.731Z,981.92
2023-04-19T02:08:36.442Z,981.92
2023-04-19T02:09:08.630Z,981.92
2023-04-19T02:09:40.294Z,981.81
2023-04-19T02:09:56.417Z,981.81
2023-04-19T02:10:28.671Z,981.81
2023-04-19T02:10:44.224Z,981.81
2023-04-19T02:11:16.154Z,981.81
2023-04-19T02:11:48.437Z,981.92
2023-04-19T02:12:20.285Z,981.92
2023-04-19T02:12:52.204Z,981.81
2023-04-19T02:13:24.174Z,981.81
2023-04-19T02:13:56.046Z,981.81
2023-04-19T02:14:12.356Z,981.81
2023-04-19T02:14:44.011Z,981.92
2023-04-19T02:15:28.709Z,981.81
2023-04-19T02:16:00.020Z,981.81
2023-04-19T02:16:32.745Z,981.92
2023-04-19T02:17:04.610Z,981.92
2023-04-19T02:17:36.193Z,981.71
2023-04-19T02:18:07.877Z,981.71
2023-04-19T02:18:39.984Z,981.81
2023-04-19T02:18:56.129Z,981.81
2023-04-19T02:19:40.121Z,981.92
2023-04-19T02:20:12.263Z,981.92
2023-04-19T02:20:43.703Z,981.81
2023-04-19T02:21:15.877Z,981.81
2023-04-19T02:21:47.937Z,981.81
2023-04-19T02:22:19.926Z,981.81
2023-04-19T02:22:51.745Z,981.61
2023-04-19T02:23:23.813Z,981.61
2023-04-19T02:23:55.759Z,981.92
2023-04-19T02:24:27.871Z,981.71
2023-04-19T02:24:59.846Z,981.71
2023-04-19T02:25:31.881Z,981.81
2023-04-19T02:26:04.166Z,981.81
2023-04-19T02:26:35.648Z,981.92
2023-04-19T02:27:07.527Z,981.92
2023-04-19T02:27:39.709Z,981.71
2023-04-19T02:28:11.539Z,981.71
2023-04-19T02:28:43.604Z,981.61
2023-04-19T02:29:15.289Z,981.61
2023-04-19T02:29:47.415Z,981.81
2023-04-19T02:30:20.091Z,981.81
2023-04-19T02:30:51.482Z,981.81
2023-04-19T02:31:23.306Z,981.81
2023-04-19T02:31:55.450Z,981.81
2023-04-19T02:32:11.423Z,981.81
2023-04-19T02:32:43.304Z,981.71
2023-04-19T02:33:27.476Z,981.51
2023-04-19T02:33:59.301Z,981.51
2023-04-19T02:34:31.239Z,981.92
2023-04-19T02:35:04.321Z,981.92
2023-04-19T02:35:35.293Z,981.71
2023-04-19T02:36:07.187Z,981.71
2023-04-19T02:36:39.541Z,981.71
2023-04-19T02:37:11.118Z,981.71
2023-04-19T02:37:43.208Z,981.61
2023-04-19T02:38:15.028Z,981.61
2023-04-19T02:38:47.056Z,981.51
2023-04-19T02:39:19.389Z,981.51
2023-04-19T02:39:51.241Z,981.51
2023-04-19T02:40:23.198Z,981.51
2023-04-19T02:40:54.975Z,981.71
2023-04-19T02:41:11.000Z,981.71
2023-04-19T02:41:55.109Z,981.61
2023-04-19T02:42:27.114Z,981.34
2023-04-19T02:42:59.002Z,981.34
2023-04-19T02:43:30.935Z,981.71
2023-04-19T02:44:03.785Z,981.71
2023-04-19T02:44:34.956Z,981.61
2023-04-19T02:45:08.721Z,981.61
2023-04-19T02:45:39.163Z,981.51
2023-04-19T02:45:55.325Z,981.51
2023-04-19T02:46:26.746Z,981.51
2023-04-19T02:46:42.843Z,981.51
2023-04-19T02:47:14.621Z,981.51
2023-04-19T02:47:46.819Z,981.61
2023-04-19T02:48:19.146Z,981.61
2023-04-19T02:48:50.860Z,981.61
2023-04-19T02:49:22.641Z,981.61
2023-04-19T02:49:54.716Z,981.61
2023-04-19T02:50:10.972Z,981.61
2023-04-19T02:50:42.598Z,981.51
2023-04-19T02:51:26.746Z,981.71
2023-04-19T02:51:58.551Z,981.71
2023-04-19T02:52:30.602Z,981.61
2023-04-19T02:53:03.023Z,981.61
2023-04-19T02:53:34.506Z,981.61
2023-04-19T02:54:06.555Z,981.61
2023-04-19T02:54:38.520Z,981.51
2023-04-19T02:54:54.594Z,981.51
2023-04-19T02:55:39.009Z,981.41
2023-04-19T02:56:10.503Z,981.41
2023-04-19T02:56:42.586Z,981.41
2023-04-19T02:57:14.349Z,981.41
2023-04-19T02:57:46.306Z,981.51
2023-04-19T02:58:18.704Z,981.51
2023-04-19T02:58:50.273Z,981.71
2023-04-19T02:59:22.272Z,981.71
2023-04-19T02:59:54.365Z,981.71
2023-04-19T03:00:26.662Z,981.41
2023-04-19T03:00:58.241Z,981.41
2023-04-19T03:01:30.302Z,981.51
2023-04-19T03:02:03.045Z,981.51
2023-04-19T03:02:34.281Z,981.61
2023-04-19T03:03:06.160Z,981.61
2023-04-19T03:03:38.585Z,981.51
2023-04-19T03:04:10.697Z,981.51
2023-04-19T03:04:42.147Z,981.51
2023-04-19T03:05:14.216Z,981.51
2023-04-19T03:05:46.013Z,981.51
2023-04-19T03:06:18.328Z,981.51
2023-04-19T03:06:50.275Z,981.41
2023-04-19T03:07:21.829Z,981.41
2023-04-19T03:07:53.956Z,981.51
2023-04-19T03:08:10.145Z,981.51
2023-04-19T03:08:41.701Z,981.41
2023-04-19T03:09:25.818Z,981.71
2023-04-19T03:09:57.762Z,981.71
2023-04-19T03:10:30.195Z,981.61
2023-04-19T03:11:01.906Z,981.61
2023-04-19T03:11:33.874Z,981.61
2023-04-19T03:12:05.850Z,981.61
2023-04-19T03:12:37.649Z,981.34
2023-04-19T03:13:10.075Z,981.34
2023-04-19T03:13:41.723Z,981.41
2023-04-19T03:14:13.780Z,981.41
2023-04-19T03:14:45.607Z,981.61
2023-04-19T03:15:19.344Z,981.61
2023-04-19T03:15:49.938Z,981.71
2023-04-19T03:16:21.673Z,981.71
2023-04-19T03:16:53.641Z,981.34
2023-04-19T03:17:09.834Z,981.34
2023-04-19T03:17:53.652Z,981.34
2023-04-19T03:18:25.607Z,981.61
2023-04-19T03:18:57.312Z,981.61
2023-04-19T03:19:29.351Z,981.61
2023-04-19T03:20:01.953Z,981.61
2023-04-19T03:20:33.542Z,981.34
2023-04-19T03:21:05.349Z,981.34
2023-04-19T03:21:37.282Z,981.41
2023-04-19T03:22:09.559Z,981.41
2023-04-19T03:22:41.232Z,981.61
2023-04-19T03:23:13.195Z,981.61
2023-04-19T03:23:45.124Z,981.34
2023-04-19T03:24:17.381Z,981.34
2023-04-19T03:24:49.548Z,981.51
2023-04-19T03:25:21.438Z,981.51
2023-04-19T03:25:53.151Z,981.34
2023-04-19T03:26:09.597Z,981.34
2023-04-19T03:26:41.004Z,981.41
2023-04-19T03:27:25.292Z,981.34
2023-04-19T03:27:56.952Z,981.34
2023-04-19T03:28:29.225Z,981.34
2023-04-19T03:29:01.153Z,981.34
2023-04-19T03:29:32.949Z,981.51
2023-04-19T03:30:06.478Z,981.51
2023-04-19T03:30:36.925Z,981.41
2023-04-19T03:31:09.401Z,981.41
2023-04-19T03:31:41.038Z,981.41
2023-04-19T03:32:12.775Z,981.41
2023-04-19T03:32:44.784Z,981.51
2023-04-19T03:33:16.961Z,981.51
2023-04-19T03:33:49.183Z,981.41
2023-04-19T03:34:20.715Z,981.41
2023-04-19T03:34:52.859Z,981.34
2023-04-19T03:35:25.033Z,981.24
2023-04-19T03:35:56.675Z,981.24
2023-04-19T03:36:28.906Z,981.34
2023-04-19T03:37:00.663Z,981.34
2023-04-19T03:37:32.637Z,981.41
2023-04-19T03:38:05.299Z,981.41
2023-04-19T03:38:36.806Z,981.41
2023-04-19T03:39:08.624Z,981.41
2023-04-19T03:39:24.889Z,981.41
2023-04-19T03:40:09.069Z,981.41
2023-04-19T03:40:40.625Z,981.41
2023-04-19T03:41:12.435Z,981.41
2023-04-19T03:41:44.418Z,981.14
2023-04-19T03:42:16.612Z,981.14
2023-04-19T03:42:48.664Z,981.34
2023-04-19T03:43:20.400Z,981.34
2023-04-19T03:43:52.498Z,981.41
2023-04-19T03:44:24.482Z,981.51
2023-04-19T03:44:56.453Z,981.51
2023-04-19T03:45:28.838Z,981.24
2023-04-19T03:46:00.302Z,981.24
2023-04-19T03:46:32.305Z,981.41
2023-04-19T03:47:04.854Z,981.41
2023-04-19T03:47:36.303Z,981.24
2023-04-19T03:48:08.432Z,981.24
2023-04-19T03:48:40.324Z,981.41
2023-04-19T03:49:12.136Z,981.41
2023-04-19T03:49:44.029Z,981.24
2023-04-19T03:50:16.369Z,981.24
2023-04-19T03:50:48.175Z,981.24
2023-04-19T03:51:20.344Z,981.24
2023-04-19T03:51:52.011Z,981.34
2023-04-19T03:52:08.166Z,981.34
2023-04-19T03:52:51.959Z,981.34
2023-04-19T03:53:24.120Z,981.14
2023-04-19T03:53:56.027Z,981.14
2023-04-19T03:54:27.973Z,981.34
2023-04-19T03:54:59.991Z,981.34
2023-04-19T03:55:32.152Z,981.24
2023-04-19T03:56:04.495Z,981.24
2023-04-19T03:56:35.661Z,981.24
2023-04-19T03:56:52.013Z,981.24
2023-04-19T03:57:23.979Z,981.24
2023-04-19T03:58:07.899Z,981.41
2023-04-19T03:58:42.233Z,981.24
2023-04-19T03:59:11.628Z,981.24
2023-04-19T03:59:43.796Z,981.51
2023-04-19T04:00:17.270Z,981.51
2023-04-19T04:00:47.776Z,981.41
2023-04-19T04:01:20.195Z,981.41
2023-04-19T04:01:51.756Z,981.24
2023-04-19T04:02:23.872Z,981.24
2023-04-19T04:02:55.813Z,981.24
2023-04-19T04:03:27.937Z,981.34
2023-04-19T04:04:01.109Z,981.34
2023-04-19T04:04:31.925Z,981.34
2023-04-19T04:05:04.380Z,981.34
2023-04-19T04:05:35.753Z,981.24
2023-04-19T04:05:51.888Z,981.24
2023-04-19T04:06:35.506Z,981.14
2023-04-19T04:07:07.499Z,981.14
2023-04-19T04:07:39.771Z,981.14
2023-04-19T04:08:11.375Z,981.14
2023-04-19T04:08:43.474Z,981.34
2023-04-19T04:09:15.291Z,981.34
2023-04-19T04:09:47.184Z,981.41
2023-04-19T04:10:19.912Z,981.41
2023-04-19T04:10:51.321Z,981.14
2023-04-19T04:11:23.412Z,981.14
2023-04-19T04:11:55.219Z,981.24
2023-04-19T04:12:27.134Z,981.41
2023-04-19T04:12:59.546Z,981.41
2023-04-19T04:13:31.200Z,981.24
2023-04-19T04:14:04.209Z,981.24
2023-04-19T04:14:35.179Z,981.24
2023-04-19T04:15:10.684Z,981.24
2023-04-19T04:15:39.520Z,981.24
2023-04-19T04:16:11.074Z,981.24
2023-04-19T04:16:43.099Z,981.34
2023-04-19T04:17:14.915Z,981.34
2023-04-19T04:17:47.078Z,981.34
2023-04-19T04:18:19.122Z,981.34
2023-04-19T04:18:51.027Z,981.24
2023-04-19T04:19:23.021Z,981.24
2023-04-19T04:19:55.031Z,981.41
2023-04-19T04:20:26.990Z,981.51
2023-04-19T04:20:59.285Z,981.51
2023-04-19T04:21:30.802Z,981.41
2023-04-19T04:22:03.709Z,981.41
2023-04-19T04:22:34.800Z,981.14
2023-04-19T04:22:50.834Z,981.14
2023-04-19T04:23:34.725Z,981.34
2023-04-19T04:24:06.724Z,981.34
2023-04-19T04:24:38.984Z,981.14
2023-04-19T04:25:10.929Z,981.14
2023-04-19T04:25:42.546Z,981.24
2023-04-19T04:26:14.610Z,981.24
2023-04-19T04:26:46.532Z,981.34
2023-04-19T04:27:18.568Z,981.34
2023-04-19T04:27:50.804Z,981.51
2023-04-19T04:28:22.762Z,981.51
2023-04-19T04:28:54.818Z,981.34
2023-04-19T04:29:26.459Z,981.34
2023-04-19T04:29:58.760Z,981.34
2023-04-19T04:30:30.868Z,981.14
2023-04-19T04:31:03.347Z,981.14
2023-04-19T04:31:34.450Z,981.24
2023-04-19T04:32:06.463Z,981.24
2023-04-19T04:32:38.836Z,981.14
2023-04-19T04:33:10.657Z,981.14
2023-04-19T04:33:42.422Z,981.34
2023-04-19T04:34:14.626Z,981.34
2023-04-19T04:34:46.428Z,981.24
2023-04-19T04:35:18.842Z,981.24
2023-04-19T04:35:50.607Z,981.34
2023-04-19T04:36:08.532Z,981.34
2023-04-19T04:36:38.866Z,981.51
2023-04-19T04:37:22.487Z,981.51
2023-04-19T04:37:54.503Z,981.41
2023-04-19T04:38:26.810Z,981.51
2023-04-19T04:38:58.611Z,981.51
2023-04-19T04:39:30.288Z,981.24
2023-04-19T04:40:03.580Z,981.24
2023-04-19T04:40:34.176Z,981.34
2023-04-19T04:40:50.611Z,981.34
2023-04-19T04:41:34.213Z,981.41
2023-04-19T04:42:06.262Z,981.41
2023-04-19T04:42:38.480Z,981.24
2023-04-19T04:43:10.138Z,981.24
2023-04-19T04:43:42.001Z,981.34
2023-04-19T04:44:14.012Z,981.34
2023-04-19T04:44:46.201Z,981.24
2023-04-19T04:45:19.439Z,981.24
2023-04-19T04:45:50.199Z,981.34
2023-04-19T04:46:22.239Z,981.34
2023-04-19T04:46:54.086Z,981.41
2023-04-19T04:47:25.913Z,981.14
2023-04-19T04:47:58.092Z,981.14
2023-04-19T04:48:30.161Z,981.24
2023-04-19T04:49:02.354Z,981.24
2023-04-19T04:49:33.751Z,981.41
2023-04-19T04:50:06.202Z,981.41
2023-04-19T04:50:37.752Z,981.41
2023-04-19T04:51:10.161Z,981.41
2023-04-19T04:51:41.748Z,981.41
2023-04-19T04:52:13.702Z,981.41
2023-04-19T04:52:45.654Z,981.34
2023-04-19T04:53:17.680Z,981.34
2023-04-19T04:53:49.768Z,981.14
2023-04-19T04:54:06.010Z,981.14
2023-04-19T04:54:37.451Z,981.41
2023-04-19T04:55:22.058Z,981.41
2023-04-19T04:55:53.588Z,981.34
2023-04-19T04:56:25.671Z,981.34
2023-04-19T04:56:57.537Z,981.34
2023-04-19T04:57:30.153Z,981.41
2023-04-19T04:58:01.703Z,981.41
2023-04-19T04:58:33.355Z,981.34
2023-04-19T04:58:49.797Z,981.34
2023-04-19T04:59:33.555Z,981.41
2023-04-19T05:00:07.051Z,981.41
2023-04-19T05:00:37.376Z,981.41
2023-04-19T05:01:09.774Z,981.41
2023-04-19T05:01:41.539Z,981.34
2023-04-19T05:02:13.426Z,981.34
2023-04-19T05:02:45.154Z,981.51
2023-04-19T05:03:17.183Z,981.51
2023-04-19T05:03:49.528Z,981.41
2023-04-19T05:04:21.360Z,981.41
2023-04-19T05:04:55.582Z,981.51
2023-04-19T05:05:25.501Z,981.51
2023-04-19T05:05:57.165Z,981.51
2023-04-19T05:06:29.436Z,981.41
2023-04-19T05:07:01.448Z,981.41
2023-04-19T05:07:33.031Z,981.41
2023-04-19T05:08:05.310Z,981.41
2023-04-19T05:08:37.251Z,981.34
2023-04-19T05:09:09.469Z,981.34
2023-04-19T05:09:40.967Z,981.34
2023-04-19T05:10:13.257Z,981.34
2023-04-19T05:10:45.019Z,981.61
2023-04-19T05:11:16.772Z,981.61
2023-04-19T05:11:49.006Z,981.61
2023-04-19T05:12:05.258Z,981.61
2023-04-19T05:12:36.899Z,981.41
2023-04-19T05:13:21.020Z,981.41
2023-04-19T05:13:52.839Z,981.41
2023-04-19T05:14:24.780Z,981.41
2023-04-19T05:14:56.891Z,981.41
2023-04-19T05:15:29.671Z,981.41
2023-04-19T05:16:00.643Z,981.41
2023-04-19T05:16:32.745Z,981.51
2023-04-19T05:17:07.085Z,981.51
2023-04-19T05:17:36.751Z,981.51
2023-04-19T05:18:09.042Z,981.51
2023-04-19T05:18:40.597Z,981.41
2023-04-19T05:19:12.679Z,981.41
2023-04-19T05:19:44.534Z,981.34
2023-04-19T05:20:17.135Z,981.34
2023-04-19T05:20:48.612Z,981.41
2023-04-19T05:21:04.791Z,981.41
2023-04-19T05:21:48.585Z,981.51
2023-04-19T05:22:20.699Z,981.51
2023-04-19T05:22:52.462Z,981.61
2023-04-19T05:23:24.500Z,981.51
2023-04-19T05:23:56.487Z,981.51
2023-04-19T05:24:28.812Z,981.41
2023-04-19T05:25:00.562Z,981.41
2023-04-19T05:25:32.299Z,981.34
2023-04-19T05:25:48.803Z,981.34
2023-04-19T05:26:20.338Z,981.34
2023-04-19T05:26:36.596Z,981.51
2023-04-19T05:27:08.555Z,981.51
2023-04-19T05:27:40.301Z,981.51
2023-04-19T05:28:12.192Z,981.51
2023-04-19T05:28:44.330Z,981.41
2023-04-19T05:29:17.779Z,981.41
2023-04-19T05:29:48.472Z,981.51
2023-04-19T05:30:06.670Z,981.51
2023-04-19T05:30:36.235Z,981.51
2023-04-19T05:31:20.312Z,981.51
2023-04-19T05:31:52.152Z,981.41
2023-04-19T05:32:24.194Z,981.41
2023-04-19T05:32:56.054Z,981.51
2023-04-19T05:33:28.155Z,981.61
2023-04-19T05:34:00.217Z,981.61
2023-04-19T05:34:31.922Z,981.51
2023-04-19T05:34:48.300Z,981.51
2023-04-19T05:35:32.137Z,981.61
2023-04-19T05:36:04.540Z,981.61
2023-04-19T05:36:35.863Z,981.41
2023-04-19T05:37:08.462Z,981.41
2023-04-19T05:37:40.387Z,981.41
2023-04-19T05:38:11.999Z,981.41
2023-04-19T05:38:43.764Z,981.71
2023-04-19T05:39:15.717Z,981.71
2023-04-19T05:39:47.830Z,981.71
2023-04-19T05:40:20.186Z,981.71
2023-04-19T05:40:51.812Z,981.61
2023-04-19T05:41:23.801Z,981.61
2023-04-19T05:41:55.759Z,981.51
2023-04-19T05:42:27.697Z,981.61
2023-04-19T05:43:00.195Z,981.61
2023-04-19T05:43:31.566Z,981.61
2023-04-19T05:44:04.089Z,981.61
2023-04-19T05:44:35.716Z,981.51
2023-04-19T05:45:09.377Z,981.51
2023-04-19T05:45:39.700Z,981.61
2023-04-19T05:46:11.556Z,981.61
2023-04-19T05:46:43.450Z,981.51
2023-04-19T05:47:15.445Z,981.51
2023-04-19T05:47:47.562Z,981.51
2023-04-19T05:48:04.050Z,981.51
2023-04-19T05:48:35.417Z,981.41
2023-04-19T05:49:19.592Z,981.41
2023-04-19T05:49:51.406Z,981.51
2023-04-19T05:50:23.567Z,981.51
2023-04-19T05:50:55.259Z,981.41
2023-04-19T05:51:27.286Z,981.61
2023-04-19T05:51:59.497Z,981.61
2023-04-19T05:52:31.105Z,981.51
2023-04-19T05:53:04.817Z,981.51
2023-04-19T05:53:35.429Z,981.61
2023-04-19T05:54:06.968Z,981.61
2023-04-19T05:54:39.482Z,981.71
2023-04-19T05:55:11.327Z,981.71
2023-04-19T05:55:43.063Z,981.61
2023-04-19T05:56:15.205Z,981.61
2023-04-19T05:56:46.986Z,981.61
2023-04-19T05:57:03.800Z,981.61
2023-04-19T05:57:47.086Z,981.51
2023-04-19T05:58:19.090Z,981.51
2023-04-19T05:58:51.013Z,981.61
2023-04-19T05:59:23.071Z,981.61
2023-04-19T05:59:54.906Z,981.71
2023-04-19T06:00:29.643Z,981.71
2023-04-19T06:00:59.243Z,981.71
2023-04-19T06:01:30.795Z,981.61
2023-04-19T06:02:03.890Z,981.61
2023-04-19T06:02:34.945Z,981.61
2023-04-19T06:03:06.758Z,981.61
2023-04-19T06:03:39.166Z,981.61
2023-04-19T06:04:11.141Z,981.61
2023-04-19T06:04:43.281Z,981.51
2023-04-19T06:05:16.820Z,981.51
2023-04-19T06:05:46.674Z,981.71
2023-04-19T06:06:03.829Z,981.71
2023-04-19T06:06:34.450Z,981.61
2023-04-19T06:07:30.912Z,981.61
2023-04-19T06:07:55.797Z,981.61
2023-04-19T06:08:22.604Z,981.61
2023-04-19T06:08:56.681Z,981.81
2023-04-19T06:09:26.599Z,981.92
2023-04-19T06:09:58.699Z,981.92
2023-04-19T06:10:44.556Z,981.81
2023-04-19T06:11:15.704Z,981.81
2023-04-19T06:11:42.893Z,981.81
2023-04-19T06:12:06.635Z,981.81
2023-04-19T06:12:38.589Z,981.61
2023-04-19T06:13:10.610Z,981.61
2023-04-19T06:13:44.378Z,981.71
2023-04-19T06:14:14.636Z,981.71
2023-04-19T06:14:46.167Z,981.71
2023-04-19T06:15:05.216Z,981.71
2023-04-19T06:15:46.238Z,981.61
2023-04-19T06:16:18.413Z,981.61
2023-04-19T06:16:50.295Z,981.71
2023-04-19T06:17:22.086Z,981.71
2023-04-19T06:17:54.526Z,981.71
2023-04-19T06:18:26.256Z,981.61
2023-04-19T06:18:57.938Z,981.61
2023-04-19T06:19:32.215Z,981.71
2023-04-19T06:20:05.575Z,981.71
2023-04-19T06:20:33.984Z,981.51
2023-04-19T06:21:05.943Z,981.51
2023-04-19T06:21:38.131Z,981.71
2023-04-19T06:22:10.102Z,981.71
2023-04-19T06:22:41.990Z,981.71
2023-04-19T06:23:13.887Z,981.71
2023-04-19T06:23:45.817Z,981.81
2023-04-19T06:24:17.981Z,981.81
2023-04-19T06:24:50.074Z,981.61
2023-04-19T06:25:22.040Z,981.61
2023-04-19T06:25:54.071Z,981.41
2023-04-19T06:26:25.956Z,981.81
2023-04-19T06:26:57.816Z,981.81
2023-04-19T06:27:29.996Z,981.71
2023-04-19T06:28:02.117Z,981.71
2023-04-19T06:28:34.882Z,981.92
2023-04-19T06:29:07.630Z,981.92
2023-04-19T06:29:37.604Z,981.61
2023-04-19T06:30:18.611Z,981.61
2023-04-19T06:30:41.632Z,981.71
2023-04-19T06:31:13.698Z,981.71
2023-04-19T06:31:45.582Z,981.61
2023-04-19T06:32:02.147Z,981.61
2023-04-19T06:32:45.615Z,981.71